sensor_id;sensor_type;location;lat;lon;timestamp;pressure;altitude;pressure_sealevel;temperature
49557;BMP280;35462;45.048;7.666;2022-11-22T00:11:40;97326.63;;;11.31
49557;BMP280;35462;45.048;7.666;2022-11-22T00:26:56;97285.06;;;11.19
49557;BMP280;35462;45.048;7.666;2022-11-22T00:42:12;97276.41;;;11.19
49557;BMP280;35462;45.048;7.666;2022-11-22T00:57:27;97270.19;;;11.13
49557;BMP280;35462;45.048;7.666;2022-11-22T01:12:43;97261.50;;;11.03
49557;BMP280;35462;45.048;7.666;2022-11-22T01:27:59;97254.09;;;10.89
49557;BMP280;35462;45.048;7.666;2022-11-22T01:43:18;97229.25;;;10.87
49557;BMP280;35462;45.048;7.666;2022-11-22T01:58:36;97198.25;;;10.87
49557;BMP280;35462;45.048;7.666;2022-11-22T02:13:52;97163.78;;;10.78
49557;BMP280;35462;45.048;7.666;2022-11-22T02:29:08;97150.09;;;10.80
49557;BMP280;35462;45.048;7.666;2022-11-22T02:44:24;97131.16;;;10.81
49557;BMP280;35462;45.048;7.666;2022-11-22T02:59:40;97116.00;;;10.82
49557;BMP280;35462;45.048;7.666;2022-11-22T03:14:56;97095.00;;;10.87
49557;BMP280;35462;45.048;7.666;2022-11-22T03:30:12;97090.28;;;10.82
49557;BMP280;35462;45.048;7.666;2022-11-22T03:45:29;97090.56;;;10.84
49557;BMP280;35462;45.048;7.666;2022-11-22T04:00:44;97092.03;;;10.85
49557;BMP280;35462;45.048;7.666;2022-11-22T04:16:00;97083.19;;;10.88
49557;BMP280;35462;45.048;7.666;2022-11-22T04:31:16;97048.63;;;10.83
49557;BMP280;35462;45.048;7.666;2022-11-22T04:46:46;97016.75;;;10.86
49557;BMP280;35462;45.048;7.666;2022-11-22T05:02:02;97015.56;;;10.87
49557;BMP280;35462;45.048;7.666;2022-11-22T05:17:18;97005.69;;;10.88
49557;BMP280;35462;45.048;7.666;2022-11-22T05:32:34;96997.91;;;10.84
49557;BMP280;35462;45.048;7.666;2022-11-22T05:47:50;97010.69;;;10.86
49557;BMP280;35462;45.048;7.666;2022-11-22T06:03:06;96990.84;;;10.90
49557;BMP280;35462;45.048;7.666;2022-11-22T06:18:21;96974.09;;;10.84
49557;BMP280;35462;45.048;7.666;2022-11-22T06:33:39;96961.44;;;10.79
49557;BMP280;35462;45.048;7.666;2022-11-22T06:48:55;96957.03;;;10.76
49557;BMP280;35462;45.048;7.666;2022-11-22T07:04:12;96947.50;;;10.79
49557;BMP280;35462;45.048;7.666;2022-11-22T07:19:28;96926.75;;;10.77
49557;BMP280;35462;45.048;7.666;2022-11-22T07:34:44;96918.22;;;10.82
49557;BMP280;35462;45.048;7.666;2022-11-22T07:50:00;96901.75;;;10.87
49557;BMP280;35462;45.048;7.666;2022-11-22T08:05:16;96903.19;;;10.88
49557;BMP280;35462;45.048;7.666;2022-11-22T08:20:32;96902.16;;;10.95
49557;BMP280;35462;45.048;7.666;2022-11-22T08:35:49;96900.19;;;11.04
49557;BMP280;35462;45.048;7.666;2022-11-22T08:51:07;96883.13;;;11.05
49557;BMP280;35462;45.048;7.666;2022-11-22T09:06:25;96865.75;;;11.13
49557;BMP280;35462;45.048;7.666;2022-11-22T09:21:41;96842.88;;;11.25
49557;BMP280;35462;45.048;7.666;2022-11-22T09:36:57;96825.84;;;11.40
49557;BMP280;35462;45.048;7.666;2022-11-22T09:52:23;96793.94;;;11.58
49557;BMP280;35462;45.048;7.666;2022-11-22T10:07:47;96767.38;;;11.67
49557;BMP280;35462;45.048;7.666;2022-11-22T10:23:15;96772.72;;;11.81
49557;BMP280;35462;45.048;7.666;2022-11-22T11:09:47;96726.56;;;12.37
49557;BMP280;35462;45.048;7.666;2022-11-22T11:56:51;96682.59;;;13.10
49557;BMP280;35462;45.048;7.666;2022-11-22T12:12:18;96651.72;;;13.12
49557;BMP280;35462;45.048;7.666;2022-11-22T12:27:40;96648.53;;;13.28
49557;BMP280;35462;45.048;7.666;2022-11-22T12:43:01;96649.91;;;13.49
49557;BMP280;35462;45.048;7.666;2022-11-22T12:58:26;96648.28;;;13.57
49557;BMP280;35462;45.048;7.666;2022-11-22T13:13:45;96645.72;;;13.68
49557;BMP280;35462;45.048;7.666;2022-11-22T13:29:21;96662.16;;;13.72
49557;BMP280;35462;45.048;7.666;2022-11-22T13:44:49;96665.81;;;13.74
49557;BMP280;35462;45.048;7.666;2022-11-22T14:15:40;96685.16;;;13.75
49557;BMP280;35462;45.048;7.666;2022-11-22T14:31:11;96698.00;;;13.76
49557;BMP280;35462;45.048;7.666;2022-11-22T14:46:35;96686.41;;;13.79
49557;BMP280;35462;45.048;7.666;2022-11-22T15:17:24;96746.81;;;13.73
49557;BMP280;35462;45.048;7.666;2022-11-22T15:32:45;96768.47;;;13.66
49557;BMP280;35462;45.048;7.666;2022-11-22T15:48:30;96808.06;;;13.59
49557;BMP280;35462;45.048;7.666;2022-11-22T16:03:51;96828.28;;;13.51
49557;BMP280;35462;45.048;7.666;2022-11-22T16:19:22;96835.41;;;13.40
49557;BMP280;35462;45.048;7.666;2022-11-22T16:34:39;96862.50;;;13.44
49557;BMP280;35462;45.048;7.666;2022-11-22T16:49:58;96877.03;;;13.48
49557;BMP280;35462;45.048;7.666;2022-11-22T17:05:15;96886.03;;;13.51
49557;BMP280;35462;45.048;7.666;2022-11-22T17:20:33;96901.91;;;13.45
49557;BMP280;35462;45.048;7.666;2022-11-22T17:35:48;96924.56;;;13.41
49557;BMP280;35462;45.048;7.666;2022-11-22T17:51:07;96939.97;;;13.37
49557;BMP280;35462;45.048;7.666;2022-11-22T18:06:23;96949.81;;;13.31
49557;BMP280;35462;45.048;7.666;2022-11-22T18:21:40;96960.34;;;13.25
49557;BMP280;35462;45.048;7.666;2022-11-22T18:36:57;96957.91;;;13.22
49557;BMP280;35462;45.048;7.666;2022-11-22T18:52:13;96967.91;;;13.12
49557;BMP280;35462;45.048;7.666;2022-11-22T19:07:29;96974.50;;;13.02
49557;BMP280;35462;45.048;7.666;2022-11-22T19:22:45;97000.84;;;12.91
49557;BMP280;35462;45.048;7.666;2022-11-22T19:38:01;97012.50;;;12.79
49557;BMP280;35462;45.048;7.666;2022-11-22T19:53:17;97027.44;;;12.77
49557;BMP280;35462;45.048;7.666;2022-11-22T20:08:33;97058.34;;;12.65
49557;BMP280;35462;45.048;7.666;2022-11-22T20:23:50;97059.53;;;12.50
49557;BMP280;35462;45.048;7.666;2022-11-22T20:39:06;97061.41;;;12.35
49557;BMP280;35462;45.048;7.666;2022-11-22T20:54:23;97070.13;;;12.27
49557;BMP280;35462;45.048;7.666;2022-11-22T21:09:39;97077.88;;;12.16
49557;BMP280;35462;45.048;7.666;2022-11-22T21:24:54;97092.34;;;12.06
49557;BMP280;35462;45.048;7.666;2022-11-22T21:40:11;97098.31;;;11.92
49557;BMP280;35462;45.048;7.666;2022-11-22T21:55:27;97112.34;;;11.83
49557;BMP280;35462;45.048;7.666;2022-11-22T22:10:43;97133.16;;;11.67
49557;BMP280;35462;45.048;7.666;2022-11-22T22:26:04;97127.44;;;11.51
49557;BMP280;35462;45.048;7.666;2022-11-22T22:41:20;97148.22;;;11.43
49557;BMP280;35462;45.048;7.666;2022-11-22T22:56:36;97156.19;;;11.25
49557;BMP280;35462;45.048;7.666;2022-11-22T23:11:52;97175.44;;;11.08
49557;BMP280;35462;45.048;7.666;2022-11-22T23:27:23;97203.09;;;10.98
49557;BMP280;35462;45.048;7.666;2022-11-22T23:42:38;97215.09;;;10.81
49557;BMP280;35462;45.048;7.666;2022-11-22T23:57:56;97227.00;;;10.68
